sensor_id;sensor_type;location;lat;lon;timestamp;P1;durP1;ratioP1;P2;durP2;ratioP2
36377;SDS011;22402;42.746;23.606;2023-10-19T00:02:09;10.03;;;8.20;;
36377;SDS011;22402;42.746;23.606;2023-10-19T00:04:43;8.73;;;7.83;;
36377;SDS011;22402;42.746;23.606;2023-10-19T00:07:08;10.17;;;9.13;;
36377;SDS011;22402;42.746;23.606;2023-10-19T00:09:40;10.30;;;9.30;;
36377;SDS011;22402;42.746;23.606;2023-10-19T00:12:10;9.20;;;8.30;;
36377;SDS011;22402;42.746;23.606;2023-10-19T00:14:35;10.10;;;9.00;;
36377;SDS011;22402;42.746;23.606;2023-10-19T00:17:01;10.27;;;9.27;;
36377;SDS011;22402;42.746;23.606;2023-10-19T00:19:36;9.60;;;8.63;;
36377;SDS011;22402;42.746;23.606;2023-10-19T00:22:07;9.03;;;8.23;;
36377;SDS011;22402;42.746;23.606;2023-10-19T00:24:34;9.63;;;8.57;;
36377;SDS011;22402;42.746;23.606;2023-10-19T00:27:00;10.17;;;8.50;;
36377;SDS011;22402;42.746;23.606;2023-10-19T00:29:35;15.30;;;9.53;;
36377;SDS011;22402;42.746;23.606;2023-10-19T00:32:05;10.37;;;9.30;;
36377;SDS011;22402;42.746;23.606;2023-10-19T00:34:32;10.70;;;8.53;;
36377;SDS011;22402;42.746;23.606;2023-10-19T00:36:58;9.97;;;8.63;;
36377;SDS011;22402;42.746;23.606;2023-10-19T00:39:33;9.73;;;8.73;;
36377;SDS011;22402;42.746;23.606;2023-10-19T00:42:08;9.80;;;8.50;;
36377;SDS011;22402;42.746;23.606;2023-10-19T00:44:35;8.77;;;7.97;;
36377;SDS011;22402;42.746;23.606;2023-10-19T00:47:07;10.17;;;9.00;;
36377;SDS011;22402;42.746;23.606;2023-10-19T00:49:40;10.20;;;8.73;;
36377;SDS011;22402;42.746;23.606;2023-10-19T00:52:18;13.03;;;9.40;;
36377;SDS011;22402;42.746;23.606;2023-10-19T00:54:49;9.90;;;9.00;;
36377;SDS011;22402;42.746;23.606;2023-10-19T00:57:17;9.50;;;8.70;;
36377;SDS011;22402;42.746;23.606;2023-10-19T00:59:57;12.30;;;11.07;;
36377;SDS011;22402;42.746;23.606;2023-10-19T01:02:45;11.27;;;10.17;;
36377;SDS011;22402;42.746;23.606;2023-10-19T01:05:11;12.60;;;11.17;;
36377;SDS011;22402;42.746;23.606;2023-10-19T01:07:39;12.40;;;10.90;;
36377;SDS011;22402;42.746;23.606;2023-10-19T01:10:06;12.50;;;10.70;;
36377;SDS011;22402;42.746;23.606;2023-10-19T01:12:48;10.60;;;9.50;;
36377;SDS011;22402;42.746;23.606;2023-10-19T01:15:18;11.30;;;10.20;;
36377;SDS011;22402;42.746;23.606;2023-10-19T01:17:55;11.37;;;10.27;;
36377;SDS011;22402;42.746;23.606;2023-10-19T01:20:23;10.20;;;9.20;;
36377;SDS011;22402;42.746;23.606;2023-10-19T01:23:09;9.77;;;8.70;;
36377;SDS011;22402;42.746;23.606;2023-10-19T01:25:55;10.13;;;8.80;;
36377;SDS011;22402;42.746;23.606;2023-10-19T01:28:31;10.63;;;9.50;;
36377;SDS011;22402;42.746;23.606;2023-10-19T01:31:13;10.60;;;9.40;;
36377;SDS011;22402;42.746;23.606;2023-10-19T01:34:00;10.70;;;9.70;;
36377;SDS011;22402;42.746;23.606;2023-10-19T01:36:29;10.07;;;9.17;;
36377;SDS011;22402;42.746;23.606;2023-10-19T01:39:01;10.83;;;9.67;;
36377;SDS011;22402;42.746;23.606;2023-10-19T01:41:27;12.00;;;9.63;;
36377;SDS011;22402;42.746;23.606;2023-10-19T01:43:53;11.20;;;10.03;;
36377;SDS011;22402;42.746;23.606;2023-10-19T01:46:20;10.27;;;9.17;;
36377;SDS011;22402;42.746;23.606;2023-10-19T01:48:47;10.77;;;9.30;;
36377;SDS011;22402;42.746;23.606;2023-10-19T01:51:15;11.23;;;10.03;;
36377;SDS011;22402;42.746;23.606;2023-10-19T01:53:42;10.80;;;9.80;;
36377;SDS011;22402;42.746;23.606;2023-10-19T01:56:11;11.97;;;10.77;;
36377;SDS011;22402;42.746;23.606;2023-10-19T01:58:42;11.47;;;10.27;;
36377;SDS011;22402;42.746;23.606;2023-10-19T02:01:09;15.73;;;11.00;;
36377;SDS011;22402;42.746;23.606;2023-10-19T02:03:44;10.97;;;9.87;;
36377;SDS011;22402;42.746;23.606;2023-10-19T02:06:14;11.10;;;9.90;;
36377;SDS011;22402;42.746;23.606;2023-10-19T02:08:51;13.83;;;11.87;;
36377;SDS011;22402;42.746;23.606;2023-10-19T02:11:56;15.10;;;12.07;;
36377;SDS011;22402;42.746;23.606;2023-10-19T02:14:22;14.23;;;12.77;;
36377;SDS011;22402;42.746;23.606;2023-10-19T02:16:53;14.43;;;12.93;;
36377;SDS011;22402;42.746;23.606;2023-10-19T02:19:24;15.20;;;13.70;;
36377;SDS011;22402;42.746;23.606;2023-10-19T02:21:55;19.10;;;14.80;;
36377;SDS011;22402;42.746;23.606;2023-10-19T02:24:22;16.20;;;14.37;;
36377;SDS011;22402;42.746;23.606;2023-10-19T02:26:49;16.97;;;15.27;;
36377;SDS011;22402;42.746;23.606;2023-10-19T02:29:16;19.60;;;17.53;;
36377;SDS011;22402;42.746;23.606;2023-10-19T02:31:43;20.27;;;17.50;;
36377;SDS011;22402;42.746;23.606;2023-10-19T02:34:10;22.23;;;18.27;;
36377;SDS011;22402;42.746;23.606;2023-10-19T02:36:39;21.73;;;18.30;;
36377;SDS011;22402;42.746;23.606;2023-10-19T02:39:08;21.33;;;19.13;;
36377;SDS011;22402;42.746;23.606;2023-10-19T02:41:35;21.33;;;19.00;;
36377;SDS011;22402;42.746;23.606;2023-10-19T02:44:10;22.47;;;18.50;;
36377;SDS011;22402;42.746;23.606;2023-10-19T02:46:42;19.67;;;17.50;;
36377;SDS011;22402;42.746;23.606;2023-10-19T02:49:08;18.83;;;16.83;;
36377;SDS011;22402;42.746;23.606;2023-10-19T02:51:38;19.77;;;17.63;;
36377;SDS011;22402;42.746;23.606;2023-10-19T02:54:14;20.43;;;18.23;;
36377;SDS011;22402;42.746;23.606;2023-10-19T02:56:46;19.87;;;17.73;;
36377;SDS011;22402;42.746;23.606;2023-10-19T02:59:17;17.80;;;15.77;;
36377;SDS011;22402;42.746;23.606;2023-10-19T03:01:47;18.37;;;16.47;;
36377;SDS011;22402;42.746;23.606;2023-10-19T03:04:14;19.20;;;17.13;;
36377;SDS011;22402;42.746;23.606;2023-10-19T03:06:40;20.03;;;17.87;;
36377;SDS011;22402;42.746;23.606;2023-10-19T03:09:07;19.90;;;16.97;;
36377;SDS011;22402;42.746;23.606;2023-10-19T03:11:59;19.27;;;17.27;;
36377;SDS011;22402;42.746;23.606;2023-10-19T03:14:28;24.03;;;17.97;;
36377;SDS011;22402;42.746;23.606;2023-10-19T03:16:53;20.53;;;18.13;;
36377;SDS011;22402;42.746;23.606;2023-10-19T03:19:22;19.10;;;17.00;;
36377;SDS011;22402;42.746;23.606;2023-10-19T03:21:50;19.93;;;17.07;;
36377;SDS011;22402;42.746;23.606;2023-10-19T03:24:16;19.13;;;17.13;;
36377;SDS011;22402;42.746;23.606;2023-10-19T03:27:14;19.30;;;17.20;;
36377;SDS011;22402;42.746;23.606;2023-10-19T03:29:42;18.23;;;16.00;;
36377;SDS011;22402;42.746;23.606;2023-10-19T03:32:14;21.90;;;16.67;;
36377;SDS011;22402;42.746;23.606;2023-10-19T03:34:41;21.50;;;17.93;;
36377;SDS011;22402;42.746;23.606;2023-10-19T03:37:12;24.47;;;17.90;;
36377;SDS011;22402;42.746;23.606;2023-10-19T03:39:39;19.80;;;17.70;;
36377;SDS011;22402;42.746;23.606;2023-10-19T03:42:05;19.73;;;17.67;;
36377;SDS011;22402;42.746;23.606;2023-10-19T03:44:32;22.23;;;19.90;;
36377;SDS011;22402;42.746;23.606;2023-10-19T03:47:13;23.17;;;20.70;;
36377;SDS011;22402;42.746;23.606;2023-10-19T03:52:13;22.70;;;19.73;;
36377;SDS011;22402;42.746;23.606;2023-10-19T03:57:15;31.27;;;22.43;;
36377;SDS011;22402;42.746;23.606;2023-10-19T03:59:54;21.40;;;19.20;;
36377;SDS011;22402;42.746;23.606;2023-10-19T04:02:22;21.80;;;19.10;;
36377;SDS011;22402;42.746;23.606;2023-10-19T04:05:00;22.40;;;20.10;;
36377;SDS011;22402;42.746;23.606;2023-10-19T04:07:26;23.23;;;20.70;;
36377;SDS011;22402;42.746;23.606;2023-10-19T04:09:56;23.63;;;19.70;;
36377;SDS011;22402;42.746;23.606;2023-10-19T04:12:27;24.30;;;20.57;;
36377;SDS011;22402;42.746;23.606;2023-10-19T04:14:57;23.57;;;20.43;;
36377;SDS011;22402;42.746;23.606;2023-10-19T04:17:22;24.70;;;22.07;;
36377;SDS011;22402;42.746;23.606;2023-10-19T04:19:49;23.30;;;20.23;;
36377;SDS011;22402;42.746;23.606;2023-10-19T04:22:16;23.33;;;19.80;;
36377;SDS011;22402;42.746;23.606;2023-10-19T04:24:51;21.27;;;18.77;;
36377;SDS011;22402;42.746;23.606;2023-10-19T04:27:18;22.67;;;19.17;;
36377;SDS011;22402;42.746;23.606;2023-10-19T04:29:48;23.30;;;19.80;;
36377;SDS011;22402;42.746;23.606;2023-10-19T04:32:14;22.37;;;18.60;;
36377;SDS011;22402;42.746;23.606;2023-10-19T04:34:44;22.03;;;18.57;;
36377;SDS011;22402;42.746;23.606;2023-10-19T04:37:10;21.17;;;18.73;;
36377;SDS011;22402;42.746;23.606;2023-10-19T04:39:37;21.27;;;18.57;;
36377;SDS011;22402;42.746;23.606;2023-10-19T04:42:03;21.23;;;17.83;;
36377;SDS011;22402;42.746;23.606;2023-10-19T04:44:29;19.37;;;17.20;;
36377;SDS011;22402;42.746;23.606;2023-10-19T04:46:56;21.70;;;19.37;;
36377;SDS011;22402;42.746;23.606;2023-10-19T04:49:22;22.57;;;18.70;;
36377;SDS011;22402;42.746;23.606;2023-10-19T04:51:47;21.87;;;19.50;;
36377;SDS011;22402;42.746;23.606;2023-10-19T04:54:13;23.80;;;20.33;;
36377;SDS011;22402;42.746;23.606;2023-10-19T04:56:38;22.70;;;19.27;;
36377;SDS011;22402;42.746;23.606;2023-10-19T04:59:04;21.20;;;19.00;;
36377;SDS011;22402;42.746;23.606;2023-10-19T05:01:30;21.87;;;19.57;;
36377;SDS011;22402;42.746;23.606;2023-10-19T05:03:59;24.43;;;20.47;;
36377;SDS011;22402;42.746;23.606;2023-10-19T05:06:25;22.97;;;20.47;;
36377;SDS011;22402;42.746;23.606;2023-10-19T05:08:50;23.90;;;20.97;;
36377;SDS011;22402;42.746;23.606;2023-10-19T05:11:17;21.50;;;19.27;;
36377;SDS011;22402;42.746;23.606;2023-10-19T05:13:43;24.87;;;19.90;;
36377;SDS011;22402;42.746;23.606;2023-10-19T05:16:08;24.03;;;21.57;;
36377;SDS011;22402;42.746;23.606;2023-10-19T05:18:34;25.70;;;22.53;;
36377;SDS011;22402;42.746;23.606;2023-10-19T05:21:00;24.00;;;21.40;;
36377;SDS011;22402;42.746;23.606;2023-10-19T05:23:26;23.77;;;20.50;;
36377;SDS011;22402;42.746;23.606;2023-10-19T05:26:02;22.90;;;20.47;;
36377;SDS011;22402;42.746;23.606;2023-10-19T05:28:29;25.10;;;21.87;;
36377;SDS011;22402;42.746;23.606;2023-10-19T05:30:55;25.57;;;22.87;;
36377;SDS011;22402;42.746;23.606;2023-10-19T05:33:21;25.90;;;23.20;;
36377;SDS011;22402;42.746;23.606;2023-10-19T05:35:49;26.47;;;22.57;;
36377;SDS011;22402;42.746;23.606;2023-10-19T05:38:15;24.03;;;21.43;;
36377;SDS011;22402;42.746;23.606;2023-10-19T05:40:41;26.40;;;19.80;;
36377;SDS011;22402;42.746;23.606;2023-10-19T05:45:45;21.20;;;19.00;;
36377;SDS011;22402;42.746;23.606;2023-10-19T05:48:15;23.30;;;19.87;;
36377;SDS011;22402;42.746;23.606;2023-10-19T05:50:40;20.80;;;18.60;;
36377;SDS011;22402;42.746;23.606;2023-10-19T05:53:07;22.47;;;19.40;;
36377;SDS011;22402;42.746;23.606;2023-10-19T05:55:33;21.20;;;18.97;;
36377;SDS011;22402;42.746;23.606;2023-10-19T05:58:01;21.90;;;18.53;;
36377;SDS011;22402;42.746;23.606;2023-10-19T06:00:30;22.40;;;20.10;;
36377;SDS011;22402;42.746;23.606;2023-10-19T06:02:56;22.87;;;18.73;;
36377;SDS011;22402;42.746;23.606;2023-10-19T06:05:23;22.00;;;19.73;;
36377;SDS011;22402;42.746;23.606;2023-10-19T06:07:49;22.73;;;20.27;;
36377;SDS011;22402;42.746;23.606;2023-10-19T06:10:21;23.40;;;20.17;;
36377;SDS011;22402;42.746;23.606;2023-10-19T06:12:51;21.63;;;19.43;;
36377;SDS011;22402;42.746;23.606;2023-10-19T06:15:17;22.23;;;19.90;;
36377;SDS011;22402;42.746;23.606;2023-10-19T06:17:46;27.00;;;23.50;;
36377;SDS011;22402;42.746;23.606;2023-10-19T06:20:13;26.83;;;21.97;;
36377;SDS011;22402;42.746;23.606;2023-10-19T06:22:47;22.17;;;19.80;;
36377;SDS011;22402;42.746;23.606;2023-10-19T06:25:16;21.93;;;19.63;;
36377;SDS011;22402;42.746;23.606;2023-10-19T06:27:46;22.53;;;19.63;;
36377;SDS011;22402;42.746;23.606;2023-10-19T06:30:16;19.53;;;17.53;;
36377;SDS011;22402;42.746;23.606;2023-10-19T06:32:53;18.17;;;16.37;;
36377;SDS011;22402;42.746;23.606;2023-10-19T06:35:21;16.90;;;15.20;;
36377;SDS011;22402;42.746;23.606;2023-10-19T06:37:47;15.57;;;13.13;;
36377;SDS011;22402;42.746;23.606;2023-10-19T06:40:14;17.77;;;15.30;;
36377;SDS011;22402;42.746;23.606;2023-10-19T06:42:41;17.63;;;15.70;;
36377;SDS011;22402;42.746;23.606;2023-10-19T06:45:13;17.43;;;15.20;;
36377;SDS011;22402;42.746;23.606;2023-10-19T06:47:39;17.57;;;15.13;;
36377;SDS011;22402;42.746;23.606;2023-10-19T06:50:06;15.87;;;14.23;;
36377;SDS011;22402;42.746;23.606;2023-10-19T06:52:35;14.27;;;12.80;;
36377;SDS011;22402;42.746;23.606;2023-10-19T06:55:05;13.20;;;11.80;;
36377;SDS011;22402;42.746;23.606;2023-10-19T06:57:53;14.30;;;12.13;;
36377;SDS011;22402;42.746;23.606;2023-10-19T07:00:19;14.07;;;11.83;;
36377;SDS011;22402;42.746;23.606;2023-10-19T07:02:50;14.20;;;12.80;;
36377;SDS011;22402;42.746;23.606;2023-10-19T07:05:16;13.30;;;11.73;;
36377;SDS011;22402;42.746;23.606;2023-10-19T07:07:55;12.00;;;10.77;;
36377;SDS011;22402;42.746;23.606;2023-10-19T07:10:23;12.97;;;11.67;;
36377;SDS011;22402;42.746;23.606;2023-10-19T07:12:51;12.10;;;10.80;;
36377;SDS011;22402;42.746;23.606;2023-10-19T07:15:18;10.00;;;9.00;;
36377;SDS011;22402;42.746;23.606;2023-10-19T07:17:45;12.53;;;9.80;;
36377;SDS011;22402;42.746;23.606;2023-10-19T07:20:12;10.10;;;8.60;;
36377;SDS011;22402;42.746;23.606;2023-10-19T07:22:54;10.13;;;9.10;;
36377;SDS011;22402;42.746;23.606;2023-10-19T07:25:21;9.77;;;8.77;;
36377;SDS011;22402;42.746;23.606;2023-10-19T07:27:50;11.30;;;8.47;;
36377;SDS011;22402;42.746;23.606;2023-10-19T07:30:16;9.70;;;8.70;;
36377;SDS011;22402;42.746;23.606;2023-10-19T07:32:47;9.17;;;8.27;;
36377;SDS011;22402;42.746;23.606;2023-10-19T07:35:19;9.67;;;7.97;;
36377;SDS011;22402;42.746;23.606;2023-10-19T07:37:45;7.90;;;7.10;;
36377;SDS011;22402;42.746;23.606;2023-10-19T07:40:13;7.40;;;6.70;;
36377;SDS011;22402;42.746;23.606;2023-10-19T07:42:39;7.90;;;7.13;;
36377;SDS011;22402;42.746;23.606;2023-10-19T07:45:05;9.53;;;7.37;;
36377;SDS011;22402;42.746;23.606;2023-10-19T07:47:36;8.73;;;6.70;;
36377;SDS011;22402;42.746;23.606;2023-10-19T07:50:05;8.63;;;7.73;;
36377;SDS011;22402;42.746;23.606;2023-10-19T07:52:34;7.97;;;7.17;;
36377;SDS011;22402;42.746;23.606;2023-10-19T07:55:00;7.33;;;6.63;;
36377;SDS011;22402;42.746;23.606;2023-10-19T07:57:27;6.73;;;5.77;;
36377;SDS011;22402;42.746;23.606;2023-10-19T07:59:54;6.60;;;6.00;;
36377;SDS011;22402;42.746;23.606;2023-10-19T08:02:21;8.13;;;6.57;;
36377;SDS011;22402;42.746;23.606;2023-10-19T08:04:49;7.63;;;6.60;;
36377;SDS011;22402;42.746;23.606;2023-10-19T08:07:16;6.43;;;5.73;;
36377;SDS011;22402;42.746;23.606;2023-10-19T08:09:42;7.70;;;5.80;;
36377;SDS011;22402;42.746;23.606;2023-10-19T08:12:08;6.57;;;5.37;;
36377;SDS011;22402;42.746;23.606;2023-10-19T08:14:34;6.03;;;5.43;;
36377;SDS011;22402;42.746;23.606;2023-10-19T08:17:00;6.57;;;5.97;;
36377;SDS011;22402;42.746;23.606;2023-10-19T08:19:27;7.30;;;5.70;;
36377;SDS011;22402;42.746;23.606;2023-10-19T08:21:53;7.00;;;6.30;;
36377;SDS011;22402;42.746;23.606;2023-10-19T08:24:18;7.43;;;6.63;;
36377;SDS011;22402;42.746;23.606;2023-10-19T08:26:46;7.20;;;6.50;;
36377;SDS011;22402;42.746;23.606;2023-10-19T08:29:12;5.87;;;5.10;;
36377;SDS011;22402;42.746;23.606;2023-10-19T08:31:41;5.43;;;4.87;;
36377;SDS011;22402;42.746;23.606;2023-10-19T08:34:11;6.90;;;4.60;;
36377;SDS011;22402;42.746;23.606;2023-10-19T08:36:39;5.00;;;4.40;;
36377;SDS011;22402;42.746;23.606;2023-10-19T08:39:07;4.67;;;4.13;;
36377;SDS011;22402;42.746;23.606;2023-10-19T08:41:36;5.10;;;4.60;;
36377;SDS011;22402;42.746;23.606;2023-10-19T08:44:06;7.83;;;4.70;;
36377;SDS011;22402;42.746;23.606;2023-10-19T08:46:44;4.67;;;3.97;;
36377;SDS011;22402;42.746;23.606;2023-10-19T08:49:12;6.03;;;4.20;;
36377;SDS011;22402;42.746;23.606;2023-10-19T08:51:39;4.87;;;4.10;;
36377;SDS011;22402;42.746;23.606;2023-10-19T08:54:09;4.53;;;4.13;;
36377;SDS011;22402;42.746;23.606;2023-10-19T08:56:36;6.53;;;4.53;;
36377;SDS011;22402;42.746;23.606;2023-10-19T08:59:02;4.23;;;3.83;;
36377;SDS011;22402;42.746;23.606;2023-10-19T09:01:28;5.23;;;4.73;;
36377;SDS011;22402;42.746;23.606;2023-10-19T09:03:57;5.47;;;3.70;;
36377;SDS011;22402;42.746;23.606;2023-10-19T09:06:24;4.63;;;4.23;;
36377;SDS011;22402;42.746;23.606;2023-10-19T09:08:50;5.10;;;4.10;;
36377;SDS011;22402;42.746;23.606;2023-10-19T09:11:16;4.07;;;3.67;;
36377;SDS011;22402;42.746;23.606;2023-10-19T09:16:12;4.47;;;3.30;;
36377;SDS011;22402;42.746;23.606;2023-10-19T09:18:40;3.83;;;3.50;;
36377;SDS011;22402;42.746;23.606;2023-10-19T09:21:07;4.30;;;3.90;;
36377;SDS011;22402;42.746;23.606;2023-10-19T09:23:36;4.83;;;3.83;;
36377;SDS011;22402;42.746;23.606;2023-10-19T09:26:03;5.43;;;4.53;;
36377;SDS011;22402;42.746;23.606;2023-10-19T09:28:30;4.77;;;4.30;;
36377;SDS011;22402;42.746;23.606;2023-10-19T09:30:58;4.10;;;3.70;;
36377;SDS011;22402;42.746;23.606;2023-10-19T09:33:26;5.43;;;4.20;;
36377;SDS011;22402;42.746;23.606;2023-10-19T09:35:52;4.73;;;4.33;;
36377;SDS011;22402;42.746;23.606;2023-10-19T09:38:21;5.33;;;4.80;;
36377;SDS011;22402;42.746;23.606;2023-10-19T09:40:50;4.30;;;3.90;;
36377;SDS011;22402;42.746;23.606;2023-10-19T09:46:01;4.97;;;3.50;;
36377;SDS011;22402;42.746;23.606;2023-10-19T09:48:31;4.60;;;3.80;;
36377;SDS011;22402;42.746;23.606;2023-10-19T09:51:00;8.63;;;3.37;;
36377;SDS011;22402;42.746;23.606;2023-10-19T09:53:28;4.13;;;3.37;;
36377;SDS011;22402;42.746;23.606;2023-10-19T09:55:56;3.87;;;3.47;;
36377;SDS011;22402;42.746;23.606;2023-10-19T09:58:24;3.30;;;3.00;;
36377;SDS011;22402;42.746;23.606;2023-10-19T10:00:57;3.57;;;3.23;;
36377;SDS011;22402;42.746;23.606;2023-10-19T10:06:11;3.50;;;3.20;;
36377;SDS011;22402;42.746;23.606;2023-10-19T10:08:39;3.60;;;2.97;;
36377;SDS011;22402;42.746;23.606;2023-10-19T10:11:19;3.40;;;2.37;;
36377;SDS011;22402;42.746;23.606;2023-10-19T10:13:47;5.30;;;3.10;;
36377;SDS011;22402;42.746;23.606;2023-10-19T10:16:16;2.30;;;2.10;;
36377;SDS011;22402;42.746;23.606;2023-10-19T10:18:47;2.90;;;2.57;;
36377;SDS011;22402;42.746;23.606;2023-10-19T10:21:16;2.13;;;1.97;;
36377;SDS011;22402;42.746;23.606;2023-10-19T10:23:59;1.97;;;1.80;;
36377;SDS011;22402;42.746;23.606;2023-10-19T10:26:28;1.73;;;1.63;;
36377;SDS011;22402;42.746;23.606;2023-10-19T10:31:45;1.90;;;1.70;;
36377;SDS011;22402;42.746;23.606;2023-10-19T10:37:03;2.27;;;2.07;;
36377;SDS011;22402;42.746;23.606;2023-10-19T10:39:32;2.50;;;2.30;;
36377;SDS011;22402;42.746;23.606;2023-10-19T10:42:01;2.43;;;2.23;;
36377;SDS011;22402;42.746;23.606;2023-10-19T10:47:08;2.83;;;2.43;;
36377;SDS011;22402;42.746;23.606;2023-10-19T10:49:45;2.97;;;2.70;;
36377;SDS011;22402;42.746;23.606;2023-10-19T10:54:54;3.00;;;2.73;;
36377;SDS011;22402;42.746;23.606;2023-10-19T10:57:20;2.80;;;2.60;;
36377;SDS011;22402;42.746;23.606;2023-10-19T10:59:45;3.30;;;3.00;;
36377;SDS011;22402;42.746;23.606;2023-10-19T11:02:20;3.10;;;2.80;;
36377;SDS011;22402;42.746;23.606;2023-10-19T11:04:47;3.20;;;2.90;;
36377;SDS011;22402;42.746;23.606;2023-10-19T11:07:19;4.13;;;3.50;;
36377;SDS011;22402;42.746;23.606;2023-10-19T11:09:48;3.70;;;3.20;;
36377;SDS011;22402;42.746;23.606;2023-10-19T11:12:14;3.50;;;3.03;;
36377;SDS011;22402;42.746;23.606;2023-10-19T11:14:56;3.43;;;3.13;;
36377;SDS011;22402;42.746;23.606;2023-10-19T11:17:24;3.27;;;3.00;;
36377;SDS011;22402;42.746;23.606;2023-10-19T11:19:55;3.23;;;2.93;;
36377;SDS011;22402;42.746;23.606;2023-10-19T11:22:24;3.53;;;3.07;;
36377;SDS011;22402;42.746;23.606;2023-10-19T11:24:53;2.37;;;2.17;;
36377;SDS011;22402;42.746;23.606;2023-10-19T11:27:26;2.87;;;2.23;;
36377;SDS011;22402;42.746;23.606;2023-10-19T11:32:24;3.10;;;2.70;;
36377;SDS011;22402;42.746;23.606;2023-10-19T11:34:56;2.63;;;2.43;;
36377;SDS011;22402;42.746;23.606;2023-10-19T11:37:22;2.87;;;2.57;;
36377;SDS011;22402;42.746;23.606;2023-10-19T11:39:48;2.80;;;2.23;;
36377;SDS011;22402;42.746;23.606;2023-10-19T11:42:17;3.70;;;2.63;;
36377;SDS011;22402;42.746;23.606;2023-10-19T11:44:43;2.87;;;2.57;;
36377;SDS011;22402;42.746;23.606;2023-10-19T11:47:10;2.83;;;2.63;;
36377;SDS011;22402;42.746;23.606;2023-10-19T11:49:35;2.20;;;2.00;;
36377;SDS011;22402;42.746;23.606;2023-10-19T11:52:03;2.70;;;1.87;;
36377;SDS011;22402;42.746;23.606;2023-10-19T11:54:30;2.47;;;2.07;;
36377;SDS011;22402;42.746;23.606;2023-10-19T11:56:57;1.83;;;1.70;;
36377;SDS011;22402;42.746;23.606;2023-10-19T11:59:24;2.40;;;2.20;;
36377;SDS011;22402;42.746;23.606;2023-10-19T12:01:49;2.90;;;2.17;;
36377;SDS011;22402;42.746;23.606;2023-10-19T12:04:15;2.17;;;1.87;;
36377;SDS011;22402;42.746;23.606;2023-10-19T12:06:40;2.80;;;2.47;;
36377;SDS011;22402;42.746;23.606;2023-10-19T12:09:06;1.70;;;1.60;;
36377;SDS011;22402;42.746;23.606;2023-10-19T12:11:41;2.67;;;2.17;;
36377;SDS011;22402;42.746;23.606;2023-10-19T12:14:07;2.60;;;2.40;;
36377;SDS011;22402;42.746;23.606;2023-10-19T12:16:37;1.90;;;1.80;;
36377;SDS011;22402;42.746;23.606;2023-10-19T12:19:06;1.90;;;1.80;;
36377;SDS011;22402;42.746;23.606;2023-10-19T12:21:35;1.87;;;1.77;;
36377;SDS011;22402;42.746;23.606;2023-10-19T12:24:02;3.10;;;2.00;;
36377;SDS011;22402;42.746;23.606;2023-10-19T12:26:30;1.63;;;1.53;;
36377;SDS011;22402;42.746;23.606;2023-10-19T12:28:55;2.57;;;2.03;;
36377;SDS011;22402;42.746;23.606;2023-10-19T12:31:21;2.03;;;1.93;;
36377;SDS011;22402;42.746;23.606;2023-10-19T12:33:48;2.03;;;1.80;;
36377;SDS011;22402;42.746;23.606;2023-10-19T12:36:14;1.37;;;1.27;;
36377;SDS011;22402;42.746;23.606;2023-10-19T12:38:57;2.13;;;1.47;;
36377;SDS011;22402;42.746;23.606;2023-10-19T12:41:23;1.90;;;1.80;;
36377;SDS011;22402;42.746;23.606;2023-10-19T12:43:49;1.93;;;1.73;;
36377;SDS011;22402;42.746;23.606;2023-10-19T12:46:17;2.30;;;2.10;;
36377;SDS011;22402;42.746;23.606;2023-10-19T12:48:44;2.00;;;1.90;;
36377;SDS011;22402;42.746;23.606;2023-10-19T12:51:12;2.10;;;1.90;;
36377;SDS011;22402;42.746;23.606;2023-10-19T12:53:38;1.93;;;1.83;;
36377;SDS011;22402;42.746;23.606;2023-10-19T12:56:04;2.90;;;1.80;;
36377;SDS011;22402;42.746;23.606;2023-10-19T12:58:32;2.40;;;2.20;;
36377;SDS011;22402;42.746;23.606;2023-10-19T13:00:58;2.23;;;1.67;;
36377;SDS011;22402;42.746;23.606;2023-10-19T13:03:24;1.70;;;1.60;;
36377;SDS011;22402;42.746;23.606;2023-10-19T13:05:56;4.20;;;2.03;;
36377;SDS011;22402;42.746;23.606;2023-10-19T13:08:22;2.10;;;1.90;;
36377;SDS011;22402;42.746;23.606;2023-10-19T13:10:49;1.93;;;1.73;;
36377;SDS011;22402;42.746;23.606;2023-10-19T13:13:15;1.73;;;1.63;;
36377;SDS011;22402;42.746;23.606;2023-10-19T13:15:45;2.20;;;2.00;;
36377;SDS011;22402;42.746;23.606;2023-10-19T13:18:13;4.77;;;2.10;;
36377;SDS011;22402;42.746;23.606;2023-10-19T13:20:44;2.10;;;1.90;;
36377;SDS011;22402;42.746;23.606;2023-10-19T13:23:11;2.47;;;2.27;;
36377;SDS011;22402;42.746;23.606;2023-10-19T13:25:36;1.90;;;1.77;;
36377;SDS011;22402;42.746;23.606;2023-10-19T13:28:14;1.80;;;1.70;;
36377;SDS011;22402;42.746;23.606;2023-10-19T13:30:51;1.70;;;1.60;;
36377;SDS011;22402;42.746;23.606;2023-10-19T13:33:21;1.83;;;1.73;;
36377;SDS011;22402;42.746;23.606;2023-10-19T13:35:47;2.30;;;2.10;;
36377;SDS011;22402;42.746;23.606;2023-10-19T13:38:13;2.43;;;1.77;;
36377;SDS011;22402;42.746;23.606;2023-10-19T13:40:41;2.50;;;2.00;;
36377;SDS011;22402;42.746;23.606;2023-10-19T13:43:07;2.13;;;1.93;;
36377;SDS011;22402;42.746;23.606;2023-10-19T13:45:35;1.50;;;1.40;;
36377;SDS011;22402;42.746;23.606;2023-10-19T13:48:01;2.17;;;1.63;;
36377;SDS011;22402;42.746;23.606;2023-10-19T13:50:28;3.83;;;1.90;;
36377;SDS011;22402;42.746;23.606;2023-10-19T13:52:55;2.50;;;2.30;;
36377;SDS011;22402;42.746;23.606;2023-10-19T13:55:22;2.67;;;2.37;;
36377;SDS011;22402;42.746;23.606;2023-10-19T13:57:51;2.57;;;2.37;;
36377;SDS011;22402;42.746;23.606;2023-10-19T14:00:17;1.90;;;1.63;;
36377;SDS011;22402;42.746;23.606;2023-10-19T14:03:07;2.00;;;1.90;;
36377;SDS011;22402;42.746;23.606;2023-10-19T14:05:39;2.50;;;2.30;;
36377;SDS011;22402;42.746;23.606;2023-10-19T14:08:08;2.30;;;2.10;;
36377;SDS011;22402;42.746;23.606;2023-10-19T14:10:34;7.83;;;2.50;;
36377;SDS011;22402;42.746;23.606;2023-10-19T14:13:00;3.00;;;2.70;;
36377;SDS011;22402;42.746;23.606;2023-10-19T14:15:26;3.77;;;2.67;;
36377;SDS011;22402;42.746;23.606;2023-10-19T14:17:54;3.57;;;2.80;;
36377;SDS011;22402;42.746;23.606;2023-10-19T14:20:24;3.43;;;2.30;;
36377;SDS011;22402;42.746;23.606;2023-10-19T14:22:50;8.93;;;2.60;;
36377;SDS011;22402;42.746;23.606;2023-10-19T14:25:18;3.10;;;2.80;;
36377;SDS011;22402;42.746;23.606;2023-10-19T14:27:46;4.00;;;3.00;;
36377;SDS011;22402;42.746;23.606;2023-10-19T14:30:15;4.73;;;3.53;;
36377;SDS011;22402;42.746;23.606;2023-10-19T14:32:43;3.30;;;3.00;;
36377;SDS011;22402;42.746;23.606;2023-10-19T14:35:15;3.10;;;2.80;;
36377;SDS011;22402;42.746;23.606;2023-10-19T14:37:43;7.30;;;3.43;;
36377;SDS011;22402;42.746;23.606;2023-10-19T14:40:13;3.83;;;3.47;;
36377;SDS011;22402;42.746;23.606;2023-10-19T14:42:41;4.13;;;3.00;;
36377;SDS011;22402;42.746;23.606;2023-10-19T14:45:11;5.40;;;4.03;;
36377;SDS011;22402;42.746;23.606;2023-10-19T14:47:39;7.33;;;3.97;;
36377;SDS011;22402;42.746;23.606;2023-10-19T14:50:24;4.90;;;3.70;;
36377;SDS011;22402;42.746;23.606;2023-10-19T14:52:50;4.03;;;3.30;;
36377;SDS011;22402;42.746;23.606;2023-10-19T14:55:17;4.90;;;3.90;;
36377;SDS011;22402;42.746;23.606;2023-10-19T14:57:44;5.63;;;4.50;;
36377;SDS011;22402;42.746;23.606;2023-10-19T15:00:14;6.40;;;5.10;;
36377;SDS011;22402;42.746;23.606;2023-10-19T15:02:50;9.53;;;7.10;;
36377;SDS011;22402;42.746;23.606;2023-10-19T15:05:16;7.63;;;5.97;;